sensor_id;sensor_type;location;lat;lon;timestamp;P1;durP1;ratioP1;P2;durP2;ratioP2
12253;SDS011;6189;52.526;13.390;2022-10-16T00:02:14;2.53;;;2.33;;
12253;SDS011;6189;52.526;13.390;2022-10-16T00:05:00;4.13;;;2.10;;
12253;SDS011;6189;52.526;13.390;2022-10-16T00:07:45;2.70;;;2.30;;
12253;SDS011;6189;52.526;13.390;2022-10-16T00:10:32;4.03;;;2.63;;
12253;SDS011;6189;52.526;13.390;2022-10-16T00:13:18;2.50;;;2.30;;
12253;SDS011;6189;52.526;13.390;2022-10-16T00:16:04;2.53;;;2.33;;
12253;SDS011;6189;52.526;13.390;2022-10-16T00:18:50;3.37;;;2.23;;
12253;SDS011;6189;52.526;13.390;2022-10-16T00:21:36;3.60;;;2.27;;
12253;SDS011;6189;52.526;13.390;2022-10-16T00:24:21;3.50;;;2.63;;
12253;SDS011;6189;52.526;13.390;2022-10-16T00:27:08;5.13;;;2.60;;
12253;SDS011;6189;52.526;13.390;2022-10-16T00:29:54;2.30;;;2.10;;
12253;SDS011;6189;52.526;13.390;2022-10-16T00:32:39;2.53;;;2.33;;
12253;SDS011;6189;52.526;13.390;2022-10-16T00:35:25;2.23;;;2.03;;
12253;SDS011;6189;52.526;13.390;2022-10-16T00:38:10;2.37;;;2.10;;
12253;SDS011;6189;52.526;13.390;2022-10-16T00:40:56;2.63;;;2.13;;
12253;SDS011;6189;52.526;13.390;2022-10-16T00:43:44;2.50;;;1.80;;
12253;SDS011;6189;52.526;13.390;2022-10-16T00:49:51;2.30;;;2.10;;
12253;SDS011;6189;52.526;13.390;2022-10-16T00:52:44;2.40;;;2.07;;
12253;SDS011;6189;52.526;13.390;2022-10-16T00:55:31;4.53;;;2.03;;
12253;SDS011;6189;52.526;13.390;2022-10-16T00:58:16;2.33;;;2.13;;
12253;SDS011;6189;52.526;13.390;2022-10-16T01:01:04;3.17;;;1.57;;
12253;SDS011;6189;52.526;13.390;2022-10-16T01:03:49;2.23;;;2.03;;
12253;SDS011;6189;52.526;13.390;2022-10-16T01:06:36;2.13;;;1.87;;
12253;SDS011;6189;52.526;13.390;2022-10-16T01:09:28;2.47;;;2.00;;
12253;SDS011;6189;52.526;13.390;2022-10-16T01:12:22;2.20;;;2.00;;
12253;SDS011;6189;52.526;13.390;2022-10-16T01:15:15;2.13;;;1.90;;
12253;SDS011;6189;52.526;13.390;2022-10-16T01:18:08;2.27;;;1.97;;
12253;SDS011;6189;52.526;13.390;2022-10-16T01:20:59;2.23;;;1.93;;
12253;SDS011;6189;52.526;13.390;2022-10-16T01:23:48;2.20;;;2.00;;
12253;SDS011;6189;52.526;13.390;2022-10-16T01:29:54;3.60;;;1.90;;
12253;SDS011;6189;52.526;13.390;2022-10-16T01:32:46;3.40;;;2.20;;
12253;SDS011;6189;52.526;13.390;2022-10-16T01:35:36;2.80;;;2.13;;
12253;SDS011;6189;52.526;13.390;2022-10-16T01:38:25;3.50;;;1.70;;
12253;SDS011;6189;52.526;13.390;2022-10-16T01:41:15;3.97;;;2.23;;
12253;SDS011;6189;52.526;13.390;2022-10-16T01:44:07;1.90;;;1.80;;
12253;SDS011;6189;52.526;13.390;2022-10-16T01:46:55;2.40;;;1.90;;
12253;SDS011;6189;52.526;13.390;2022-10-16T01:49:42;2.27;;;2.03;;
12253;SDS011;6189;52.526;13.390;2022-10-16T01:52:30;2.53;;;2.00;;
12253;SDS011;6189;52.526;13.390;2022-10-16T01:55:19;2.50;;;1.70;;
12253;SDS011;6189;52.526;13.390;2022-10-16T01:58:08;3.60;;;2.13;;
12253;SDS011;6189;52.526;13.390;2022-10-16T02:00:56;2.10;;;1.90;;
12253;SDS011;6189;52.526;13.390;2022-10-16T02:03:42;2.43;;;1.97;;
12253;SDS011;6189;52.526;13.390;2022-10-16T02:06:29;2.40;;;2.00;;
12253;SDS011;6189;52.526;13.390;2022-10-16T02:09:15;2.10;;;1.90;;
12253;SDS011;6189;52.526;13.390;2022-10-16T02:12:01;2.50;;;2.00;;
12253;SDS011;6189;52.526;13.390;2022-10-16T02:14:57;2.17;;;1.97;;
12253;SDS011;6189;52.526;13.390;2022-10-16T02:17:43;1.80;;;1.70;;
12253;SDS011;6189;52.526;13.390;2022-10-16T02:20:29;2.27;;;2.00;;
12253;SDS011;6189;52.526;13.390;2022-10-16T02:23:23;2.03;;;1.77;;
12253;SDS011;6189;52.526;13.390;2022-10-16T02:26:15;2.50;;;2.10;;
12253;SDS011;6189;52.526;13.390;2022-10-16T02:29:10;1.97;;;1.83;;
12253;SDS011;6189;52.526;13.390;2022-10-16T02:31:59;1.83;;;1.73;;
12253;SDS011;6189;52.526;13.390;2022-10-16T02:34:48;2.20;;;2.00;;
12253;SDS011;6189;52.526;13.390;2022-10-16T02:37:34;2.47;;;1.73;;
12253;SDS011;6189;52.526;13.390;2022-10-16T02:40:21;2.17;;;1.80;;
12253;SDS011;6189;52.526;13.390;2022-10-16T02:43:07;3.50;;;2.13;;
12253;SDS011;6189;52.526;13.390;2022-10-16T02:45:53;2.17;;;1.97;;
12253;SDS011;6189;52.526;13.390;2022-10-16T02:48:38;2.23;;;1.80;;
12253;SDS011;6189;52.526;13.390;2022-10-16T02:51:25;2.23;;;1.63;;
12253;SDS011;6189;52.526;13.390;2022-10-16T02:54:10;2.30;;;1.87;;
12253;SDS011;6189;52.526;13.390;2022-10-16T02:56:56;4.30;;;1.97;;
12253;SDS011;6189;52.526;13.390;2022-10-16T02:59:42;2.20;;;2.00;;
12253;SDS011;6189;52.526;13.390;2022-10-16T03:02:27;2.20;;;1.70;;
12253;SDS011;6189;52.526;13.390;2022-10-16T03:05:13;3.33;;;1.63;;
12253;SDS011;6189;52.526;13.390;2022-10-16T03:07:59;4.97;;;1.83;;
12253;SDS011;6189;52.526;13.390;2022-10-16T03:10:45;3.17;;;1.50;;
12253;SDS011;6189;52.526;13.390;2022-10-16T03:13:31;1.90;;;1.63;;
12253;SDS011;6189;52.526;13.390;2022-10-16T03:16:16;5.00;;;2.00;;
12253;SDS011;6189;52.526;13.390;2022-10-16T03:19:01;2.43;;;1.77;;
12253;SDS011;6189;52.526;13.390;2022-10-16T03:21:47;3.27;;;1.87;;
12253;SDS011;6189;52.526;13.390;2022-10-16T03:24:33;3.50;;;1.80;;
12253;SDS011;6189;52.526;13.390;2022-10-16T03:27:19;2.10;;;1.90;;
12253;SDS011;6189;52.526;13.390;2022-10-16T03:30:05;1.93;;;1.77;;
12253;SDS011;6189;52.526;13.390;2022-10-16T03:32:51;2.87;;;2.13;;
12253;SDS011;6189;52.526;13.390;2022-10-16T03:35:37;2.13;;;1.93;;
12253;SDS011;6189;52.526;13.390;2022-10-16T03:38:23;3.17;;;1.97;;
12253;SDS011;6189;52.526;13.390;2022-10-16T03:41:09;3.03;;;1.83;;
12253;SDS011;6189;52.526;13.390;2022-10-16T03:43:55;2.50;;;1.87;;
12253;SDS011;6189;52.526;13.390;2022-10-16T03:46:40;2.77;;;1.97;;
12253;SDS011;6189;52.526;13.390;2022-10-16T03:49:26;2.20;;;2.00;;
12253;SDS011;6189;52.526;13.390;2022-10-16T03:52:11;2.50;;;1.70;;
12253;SDS011;6189;52.526;13.390;2022-10-16T03:54:56;2.23;;;2.00;;
12253;SDS011;6189;52.526;13.390;2022-10-16T03:57:43;2.00;;;1.80;;
12253;SDS011;6189;52.526;13.390;2022-10-16T04:00:29;2.10;;;1.90;;
12253;SDS011;6189;52.526;13.390;2022-10-16T04:03:14;2.10;;;1.90;;
12253;SDS011;6189;52.526;13.390;2022-10-16T04:06:00;3.07;;;1.80;;
12253;SDS011;6189;52.526;13.390;2022-10-16T04:08:46;2.90;;;2.00;;
12253;SDS011;6189;52.526;13.390;2022-10-16T04:11:31;2.00;;;1.80;;
12253;SDS011;6189;52.526;13.390;2022-10-16T04:14:18;2.47;;;2.27;;
12253;SDS011;6189;52.526;13.390;2022-10-16T04:17:03;3.27;;;1.60;;
12253;SDS011;6189;52.526;13.390;2022-10-16T04:19:49;2.27;;;2.07;;
12253;SDS011;6189;52.526;13.390;2022-10-16T04:22:34;2.43;;;2.00;;
12253;SDS011;6189;52.526;13.390;2022-10-16T04:25:20;2.00;;;1.80;;
12253;SDS011;6189;52.526;13.390;2022-10-16T04:28:05;1.93;;;1.80;;
12253;SDS011;6189;52.526;13.390;2022-10-16T04:30:52;2.43;;;2.13;;
12253;SDS011;6189;52.526;13.390;2022-10-16T04:33:37;3.20;;;2.33;;
12253;SDS011;6189;52.526;13.390;2022-10-16T04:36:23;3.07;;;2.33;;
12253;SDS011;6189;52.526;13.390;2022-10-16T04:39:08;2.17;;;1.93;;
12253;SDS011;6189;52.526;13.390;2022-10-16T04:41:54;3.17;;;2.00;;
12253;SDS011;6189;52.526;13.390;2022-10-16T04:44:39;2.57;;;2.17;;
12253;SDS011;6189;52.526;13.390;2022-10-16T04:47:26;2.20;;;2.00;;
12253;SDS011;6189;52.526;13.390;2022-10-16T04:50:12;2.83;;;2.40;;
12253;SDS011;6189;52.526;13.390;2022-10-16T04:52:57;3.73;;;2.10;;
12253;SDS011;6189;52.526;13.390;2022-10-16T04:55:43;2.20;;;2.00;;
12253;SDS011;6189;52.526;13.390;2022-10-16T04:58:28;2.77;;;2.20;;
12253;SDS011;6189;52.526;13.390;2022-10-16T05:01:14;3.50;;;2.20;;
12253;SDS011;6189;52.526;13.390;2022-10-16T05:04:01;3.53;;;2.03;;
12253;SDS011;6189;52.526;13.390;2022-10-16T05:06:47;2.93;;;1.97;;
12253;SDS011;6189;52.526;13.390;2022-10-16T05:09:32;3.20;;;2.13;;
12253;SDS011;6189;52.526;13.390;2022-10-16T05:12:18;2.30;;;2.10;;
12253;SDS011;6189;52.526;13.390;2022-10-16T05:15:03;4.87;;;2.50;;
12253;SDS011;6189;52.526;13.390;2022-10-16T05:17:51;2.23;;;2.00;;
12253;SDS011;6189;52.526;13.390;2022-10-16T05:20:39;2.60;;;2.40;;
12253;SDS011;6189;52.526;13.390;2022-10-16T05:23:25;2.33;;;2.13;;
12253;SDS011;6189;52.526;13.390;2022-10-16T05:26:10;2.40;;;2.20;;
12253;SDS011;6189;52.526;13.390;2022-10-16T05:28:56;2.80;;;1.73;;
12253;SDS011;6189;52.526;13.390;2022-10-16T05:31:41;3.37;;;2.00;;
12253;SDS011;6189;52.526;13.390;2022-10-16T05:34:27;2.33;;;2.10;;
12253;SDS011;6189;52.526;13.390;2022-10-16T05:37:14;3.20;;;1.90;;
12253;SDS011;6189;52.526;13.390;2022-10-16T05:39:59;3.40;;;2.10;;
12253;SDS011;6189;52.526;13.390;2022-10-16T05:42:46;2.27;;;2.07;;
12253;SDS011;6189;52.526;13.390;2022-10-16T05:45:31;4.10;;;2.30;;
12253;SDS011;6189;52.526;13.390;2022-10-16T05:48:17;2.40;;;2.20;;
12253;SDS011;6189;52.526;13.390;2022-10-16T05:51:03;2.30;;;2.10;;
12253;SDS011;6189;52.526;13.390;2022-10-16T05:53:52;3.40;;;2.40;;
12253;SDS011;6189;52.526;13.390;2022-10-16T05:56:37;8.03;;;2.40;;
12253;SDS011;6189;52.526;13.390;2022-10-16T05:59:23;3.10;;;2.33;;
12253;SDS011;6189;52.526;13.390;2022-10-16T06:02:08;4.53;;;2.10;;
12253;SDS011;6189;52.526;13.390;2022-10-16T06:04:57;2.43;;;2.23;;
12253;SDS011;6189;52.526;13.390;2022-10-16T06:07:42;3.03;;;2.23;;
12253;SDS011;6189;52.526;13.390;2022-10-16T06:10:29;2.87;;;2.13;;
12253;SDS011;6189;52.526;13.390;2022-10-16T06:13:14;2.77;;;2.27;;
12253;SDS011;6189;52.526;13.390;2022-10-16T06:16:00;2.87;;;2.13;;
12253;SDS011;6189;52.526;13.390;2022-10-16T06:18:47;4.83;;;2.57;;
12253;SDS011;6189;52.526;13.390;2022-10-16T06:21:32;3.47;;;2.27;;
12253;SDS011;6189;52.526;13.390;2022-10-16T06:24:18;4.70;;;2.43;;
12253;SDS011;6189;52.526;13.390;2022-10-16T06:27:05;2.63;;;2.23;;
12253;SDS011;6189;52.526;13.390;2022-10-16T06:29:51;4.33;;;2.40;;
12253;SDS011;6189;52.526;13.390;2022-10-16T06:32:36;4.13;;;2.00;;
12253;SDS011;6189;52.526;13.390;2022-10-16T06:35:22;2.90;;;2.50;;
12253;SDS011;6189;52.526;13.390;2022-10-16T06:38:07;2.50;;;2.30;;
12253;SDS011;6189;52.526;13.390;2022-10-16T06:40:53;3.50;;;2.67;;
12253;SDS011;6189;52.526;13.390;2022-10-16T06:43:40;3.30;;;2.50;;
12253;SDS011;6189;52.526;13.390;2022-10-16T06:46:26;3.77;;;2.57;;
12253;SDS011;6189;52.526;13.390;2022-10-16T06:49:12;3.27;;;2.77;;
12253;SDS011;6189;52.526;13.390;2022-10-16T06:52:05;3.40;;;2.57;;
12253;SDS011;6189;52.526;13.390;2022-10-16T06:54:50;4.47;;;2.70;;
12253;SDS011;6189;52.526;13.390;2022-10-16T06:57:36;4.40;;;2.80;;
12253;SDS011;6189;52.526;13.390;2022-10-16T07:00:22;3.63;;;2.63;;
12253;SDS011;6189;52.526;13.390;2022-10-16T07:03:08;6.13;;;2.67;;
12253;SDS011;6189;52.526;13.390;2022-10-16T07:05:54;3.03;;;2.43;;
12253;SDS011;6189;52.526;13.390;2022-10-16T07:08:40;2.70;;;2.30;;
12253;SDS011;6189;52.526;13.390;2022-10-16T07:11:27;3.03;;;2.53;;
12253;SDS011;6189;52.526;13.390;2022-10-16T07:14:12;3.30;;;2.50;;
12253;SDS011;6189;52.526;13.390;2022-10-16T07:17:02;3.67;;;2.17;;
12253;SDS011;6189;52.526;13.390;2022-10-16T07:19:48;2.87;;;2.10;;
12253;SDS011;6189;52.526;13.390;2022-10-16T07:22:36;4.23;;;2.20;;
12253;SDS011;6189;52.526;13.390;2022-10-16T07:25:21;4.37;;;2.50;;
12253;SDS011;6189;52.526;13.390;2022-10-16T07:28:07;4.40;;;2.57;;
12253;SDS011;6189;52.526;13.390;2022-10-16T07:30:53;4.40;;;2.23;;
12253;SDS011;6189;52.526;13.390;2022-10-16T07:33:40;4.20;;;2.27;;
12253;SDS011;6189;52.526;13.390;2022-10-16T07:36:27;4.43;;;1.77;;
12253;SDS011;6189;52.526;13.390;2022-10-16T07:39:13;3.87;;;1.93;;
12253;SDS011;6189;52.526;13.390;2022-10-16T07:41:58;2.30;;;1.73;;
12253;SDS011;6189;52.526;13.390;2022-10-16T07:44:44;5.57;;;2.10;;
12253;SDS011;6189;52.526;13.390;2022-10-16T07:47:29;2.53;;;1.80;;
12253;SDS011;6189;52.526;13.390;2022-10-16T07:50:16;3.60;;;2.00;;
12253;SDS011;6189;52.526;13.390;2022-10-16T07:53:01;1.77;;;1.67;;
12253;SDS011;6189;52.526;13.390;2022-10-16T07:55:47;2.57;;;1.80;;
12253;SDS011;6189;52.526;13.390;2022-10-16T07:58:33;2.87;;;2.00;;
12253;SDS011;6189;52.526;13.390;2022-10-16T08:01:21;3.30;;;2.10;;
12253;SDS011;6189;52.526;13.390;2022-10-16T08:04:06;1.80;;;1.50;;
12253;SDS011;6189;52.526;13.390;2022-10-16T08:06:53;2.53;;;2.00;;
12253;SDS011;6189;52.526;13.390;2022-10-16T08:09:39;3.73;;;2.37;;
12253;SDS011;6189;52.526;13.390;2022-10-16T08:12:24;4.33;;;2.30;;
12253;SDS011;6189;52.526;13.390;2022-10-16T08:15:10;4.00;;;2.10;;
12253;SDS011;6189;52.526;13.390;2022-10-16T08:17:56;2.70;;;2.20;;
12253;SDS011;6189;52.526;13.390;2022-10-16T08:20:42;2.10;;;1.90;;
12253;SDS011;6189;52.526;13.390;2022-10-16T08:23:29;2.27;;;2.00;;
12253;SDS011;6189;52.526;13.390;2022-10-16T08:26:15;3.33;;;2.00;;
12253;SDS011;6189;52.526;13.390;2022-10-16T08:29:00;1.93;;;1.70;;
12253;SDS011;6189;52.526;13.390;2022-10-16T08:31:46;2.50;;;2.30;;
12253;SDS011;6189;52.526;13.390;2022-10-16T08:34:31;4.13;;;2.07;;
12253;SDS011;6189;52.526;13.390;2022-10-16T08:37:17;3.80;;;2.30;;
12253;SDS011;6189;52.526;13.390;2022-10-16T08:40:04;2.17;;;1.90;;
12253;SDS011;6189;52.526;13.390;2022-10-16T08:46:21;2.20;;;1.67;;
12253;SDS011;6189;52.526;13.390;2022-10-16T08:49:16;2.97;;;2.53;;
12253;SDS011;6189;52.526;13.390;2022-10-16T08:52:02;3.83;;;2.40;;
12253;SDS011;6189;52.526;13.390;2022-10-16T08:54:48;3.53;;;2.60;;
12253;SDS011;6189;52.526;13.390;2022-10-16T08:57:39;2.50;;;2.30;;
12253;SDS011;6189;52.526;13.390;2022-10-16T09:00:24;5.40;;;2.87;;
12253;SDS011;6189;52.526;13.390;2022-10-16T09:03:13;2.47;;;2.27;;
12253;SDS011;6189;52.526;13.390;2022-10-16T09:09:23;2.70;;;2.10;;
12253;SDS011;6189;52.526;13.390;2022-10-16T09:12:22;2.80;;;2.07;;
12253;SDS011;6189;52.526;13.390;2022-10-16T09:15:16;2.13;;;1.97;;
12253;SDS011;6189;52.526;13.390;2022-10-16T09:18:15;4.27;;;1.77;;
12253;SDS011;6189;52.526;13.390;2022-10-16T09:21:06;2.23;;;1.83;;
12253;SDS011;6189;52.526;13.390;2022-10-16T09:23:59;2.60;;;1.77;;
12253;SDS011;6189;52.526;13.390;2022-10-16T09:26:53;2.00;;;1.80;;
12253;SDS011;6189;52.526;13.390;2022-10-16T09:29:38;2.07;;;1.50;;
12253;SDS011;6189;52.526;13.390;2022-10-16T09:32:26;5.70;;;1.70;;
12253;SDS011;6189;52.526;13.390;2022-10-16T09:35:14;5.27;;;1.77;;
12253;SDS011;6189;52.526;13.390;2022-10-16T09:38:02;1.87;;;1.73;;
12253;SDS011;6189;52.526;13.390;2022-10-16T09:40:47;2.37;;;1.87;;
12253;SDS011;6189;52.526;13.390;2022-10-16T09:43:34;3.73;;;1.70;;
12253;SDS011;6189;52.526;13.390;2022-10-16T09:46:27;2.43;;;1.67;;
12253;SDS011;6189;52.526;13.390;2022-10-16T09:49:22;1.80;;;1.63;;
12253;SDS011;6189;52.526;13.390;2022-10-16T09:52:11;1.50;;;1.40;;
12253;SDS011;6189;52.526;13.390;2022-10-16T09:54:58;2.00;;;1.50;;
12253;SDS011;6189;52.526;13.390;2022-10-16T09:57:48;3.27;;;1.60;;
12253;SDS011;6189;52.526;13.390;2022-10-16T10:00:34;1.87;;;1.50;;
12253;SDS011;6189;52.526;13.390;2022-10-16T10:03:30;3.43;;;1.50;;
12253;SDS011;6189;52.526;13.390;2022-10-16T10:06:24;4.03;;;1.30;;
12253;SDS011;6189;52.526;13.390;2022-10-16T10:09:19;2.10;;;1.40;;
12253;SDS011;6189;52.526;13.390;2022-10-16T10:12:14;3.87;;;1.80;;
12253;SDS011;6189;52.526;13.390;2022-10-16T10:15:04;4.90;;;1.40;;
12253;SDS011;6189;52.526;13.390;2022-10-16T10:17:52;2.37;;;1.73;;
12253;SDS011;6189;52.526;13.390;2022-10-16T10:20:38;2.90;;;1.70;;
12253;SDS011;6189;52.526;13.390;2022-10-16T10:23:26;2.70;;;1.80;;
12253;SDS011;6189;52.526;13.390;2022-10-16T10:26:14;1.67;;;1.43;;
12253;SDS011;6189;52.526;13.390;2022-10-16T10:29:03;3.63;;;1.53;;
12253;SDS011;6189;52.526;13.390;2022-10-16T10:31:54;5.97;;;1.87;;
12253;SDS011;6189;52.526;13.390;2022-10-16T10:34:56;2.33;;;1.50;;
12253;SDS011;6189;52.526;13.390;2022-10-16T10:38:02;3.67;;;1.93;;
12253;SDS011;6189;52.526;13.390;2022-10-16T10:41:00;6.03;;;1.50;;
12253;SDS011;6189;52.526;13.390;2022-10-16T10:44:01;4.07;;;1.50;;
12253;SDS011;6189;52.526;13.390;2022-10-16T10:46:54;2.60;;;1.30;;
12253;SDS011;6189;52.526;13.390;2022-10-16T10:49:49;2.03;;;1.10;;
12253;SDS011;6189;52.526;13.390;2022-10-16T10:52:43;2.33;;;1.27;;
12253;SDS011;6189;52.526;13.390;2022-10-16T10:55:39;2.23;;;1.30;;
12253;SDS011;6189;52.526;13.390;2022-10-16T10:58:40;4.80;;;1.73;;
12253;SDS011;6189;52.526;13.390;2022-10-16T11:01:37;1.67;;;1.57;;
12253;SDS011;6189;52.526;13.390;2022-10-16T11:07:57;3.30;;;1.60;;
12253;SDS011;6189;52.526;13.390;2022-10-16T11:10:45;2.53;;;1.50;;
12253;SDS011;6189;52.526;13.390;2022-10-16T11:13:38;4.53;;;2.33;;
12253;SDS011;6189;52.526;13.390;2022-10-16T11:16:29;1.50;;;1.40;;
12253;SDS011;6189;52.526;13.390;2022-10-16T11:19:19;1.97;;;1.47;;
12253;SDS011;6189;52.526;13.390;2022-10-16T11:22:13;2.60;;;2.07;;
12253;SDS011;6189;52.526;13.390;2022-10-16T11:25:06;2.37;;;2.10;;
12253;SDS011;6189;52.526;13.390;2022-10-16T11:28:00;2.20;;;1.60;;
12253;SDS011;6189;52.526;13.390;2022-10-16T11:30:53;3.93;;;1.80;;
12253;SDS011;6189;52.526;13.390;2022-10-16T11:33:42;2.13;;;1.63;;
12253;SDS011;6189;52.526;13.390;2022-10-16T11:36:32;1.93;;;1.60;;
12253;SDS011;6189;52.526;13.390;2022-10-16T11:39:22;2.13;;;1.43;;
12253;SDS011;6189;52.526;13.390;2022-10-16T11:42:11;2.50;;;1.60;;
12253;SDS011;6189;52.526;13.390;2022-10-16T11:45:07;3.30;;;2.47;;
12253;SDS011;6189;52.526;13.390;2022-10-16T11:48:04;3.23;;;2.20;;
12253;SDS011;6189;52.526;13.390;2022-10-16T11:50:58;2.60;;;1.90;;
12253;SDS011;6189;52.526;13.390;2022-10-16T11:53:52;2.57;;;1.87;;
12253;SDS011;6189;52.526;13.390;2022-10-16T11:56:42;4.27;;;2.00;;
12253;SDS011;6189;52.526;13.390;2022-10-16T11:59:31;5.17;;;1.90;;
12253;SDS011;6189;52.526;13.390;2022-10-16T12:02:26;2.73;;;1.97;;
12253;SDS011;6189;52.526;13.390;2022-10-16T12:05:29;3.23;;;1.90;;
12253;SDS011;6189;52.526;13.390;2022-10-16T12:08:23;4.20;;;1.43;;
12253;SDS011;6189;52.526;13.390;2022-10-16T12:11:19;3.17;;;1.70;;
12253;SDS011;6189;52.526;13.390;2022-10-16T12:14:18;2.23;;;1.60;;
12253;SDS011;6189;52.526;13.390;2022-10-16T12:17:25;1.57;;;1.47;;
12253;SDS011;6189;52.526;13.390;2022-10-16T12:20:23;2.00;;;1.80;;
12253;SDS011;6189;52.526;13.390;2022-10-16T12:23:19;4.13;;;2.00;;
12253;SDS011;6189;52.526;13.390;2022-10-16T12:26:05;3.57;;;2.03;;
12253;SDS011;6189;52.526;13.390;2022-10-16T12:28:51;1.63;;;1.53;;
12253;SDS011;6189;52.526;13.390;2022-10-16T12:31:37;2.57;;;1.50;;
12253;SDS011;6189;52.526;13.390;2022-10-16T12:34:32;3.00;;;1.57;;
12253;SDS011;6189;52.526;13.390;2022-10-16T12:37:23;2.70;;;1.43;;
12253;SDS011;6189;52.526;13.390;2022-10-16T12:40:22;4.23;;;1.30;;
12253;SDS011;6189;52.526;13.390;2022-10-16T12:43:25;2.10;;;1.47;;
12253;SDS011;6189;52.526;13.390;2022-10-16T12:49:32;1.40;;;1.30;;
12253;SDS011;6189;52.526;13.390;2022-10-16T12:52:25;3.87;;;1.57;;
12253;SDS011;6189;52.526;13.390;2022-10-16T12:55:14;4.13;;;2.20;;
12253;SDS011;6189;52.526;13.390;2022-10-16T12:58:11;2.97;;;1.40;;
12253;SDS011;6189;52.526;13.390;2022-10-16T13:01:07;3.47;;;1.70;;
12253;SDS011;6189;52.526;13.390;2022-10-16T13:04:06;3.80;;;1.43;;
12253;SDS011;6189;52.526;13.390;2022-10-16T13:07:14;3.63;;;1.47;;
12253;SDS011;6189;52.526;13.390;2022-10-16T13:10:21;3.40;;;1.57;;
12253;SDS011;6189;52.526;13.390;2022-10-16T13:13:19;1.30;;;1.10;;
12253;SDS011;6189;52.526;13.390;2022-10-16T13:16:21;1.70;;;1.10;;
12253;SDS011;6189;52.526;13.390;2022-10-16T13:19:20;1.27;;;1.00;;
12253;SDS011;6189;52.526;13.390;2022-10-16T13:22:14;1.40;;;1.07;;
12253;SDS011;6189;52.526;13.390;2022-10-16T13:25:13;3.60;;;1.20;;
12253;SDS011;6189;52.526;13.390;2022-10-16T13:28:08;1.43;;;1.03;;
12253;SDS011;6189;52.526;13.390;2022-10-16T13:30:56;2.37;;;0.97;;
12253;SDS011;6189;52.526;13.390;2022-10-16T13:33:43;1.80;;;0.90;;
12253;SDS011;6189;52.526;13.390;2022-10-16T13:36:34;1.87;;;0.90;;
12253;SDS011;6189;52.526;13.390;2022-10-16T13:39:28;0.90;;;0.90;;
12253;SDS011;6189;52.526;13.390;2022-10-16T13:42:18;2.07;;;1.03;;
12253;SDS011;6189;52.526;13.390;2022-10-16T13:45:18;1.67;;;1.03;;
12253;SDS011;6189;52.526;13.390;2022-10-16T13:48:05;1.30;;;0.90;;
12253;SDS011;6189;52.526;13.390;2022-10-16T13:50:59;1.97;;;1.10;;
12253;SDS011;6189;52.526;13.390;2022-10-16T13:53:46;4.87;;;1.40;;
12253;SDS011;6189;52.526;13.390;2022-10-16T13:56:32;3.93;;;1.20;;
12253;SDS011;6189;52.526;13.390;2022-10-16T13:59:24;1.73;;;0.80;;
12253;SDS011;6189;52.526;13.390;2022-10-16T14:02:19;1.17;;;0.97;;
12253;SDS011;6189;52.526;13.390;2022-10-16T14:05:08;2.07;;;1.30;;
12253;SDS011;6189;52.526;13.390;2022-10-16T14:07:54;2.03;;;1.40;;
12253;SDS011;6189;52.526;13.390;2022-10-16T14:10:41;3.47;;;1.57;;
12253;SDS011;6189;52.526;13.390;2022-10-16T14:13:29;2.30;;;1.80;;
12253;SDS011;6189;52.526;13.390;2022-10-16T14:16:19;3.87;;;1.60;;
12253;SDS011;6189;52.526;13.390;2022-10-16T14:19:13;2.43;;;1.70;;
12253;SDS011;6189;52.526;13.390;2022-10-16T14:22:03;1.40;;;1.00;;
12253;SDS011;6189;52.526;13.390;2022-10-16T14:25:23;2.53;;;1.40;;
12253;SDS011;6189;52.526;13.390;2022-10-16T14:28:14;1.07;;;0.97;;
12253;SDS011;6189;52.526;13.390;2022-10-16T14:31:02;1.70;;;1.13;;
12253;SDS011;6189;52.526;13.390;2022-10-16T14:34:24;3.80;;;1.60;;
12253;SDS011;6189;52.526;13.390;2022-10-16T14:37:14;2.03;;;1.50;;
12253;SDS011;6189;52.526;13.390;2022-10-16T14:40:11;2.07;;;1.20;;
12253;SDS011;6189;52.526;13.390;2022-10-16T14:43:00;3.33;;;1.40;;
12253;SDS011;6189;52.526;13.390;2022-10-16T14:45:49;2.73;;;1.60;;
12253;SDS011;6189;52.526;13.390;2022-10-16T14:48:36;1.87;;;1.40;;
12253;SDS011;6189;52.526;13.390;2022-10-16T14:51:27;3.47;;;1.38;;
12253;SDS011;6189;52.526;13.390;2022-10-16T14:54:13;1.87;;;1.40;;
12253;SDS011;6189;52.526;13.390;2022-10-16T14:56:59;1.30;;;1.20;;
12253;SDS011;6189;52.526;13.390;2022-10-16T14:59:44;2.43;;;1.93;;
12253;SDS011;6189;52.526;13.390;2022-10-16T15:02:32;8.57;;;2.23;;
12253;SDS011;6189;52.526;13.390;2022-10-16T15:05:19;1.40;;;1.30;;
12253;SDS011;6189;52.526;13.390;2022-10-16T15:08:08;1.73;;;1.50;;
12253;SDS011;6189;52.526;13.390;2022-10-16T15:10:54;2.90;;;1.30;;
12253;SDS011;6189;52.526;13.390;2022-10-16T15:13:40;1.50;;;1.40;;
12253;SDS011;6189;52.526;13.390;2022-10-16T15:16:26;5.20;;;1.43;;
12253;SDS011;6189;52.526;13.390;2022-10-16T15:19:11;6.23;;;2.40;;
12253;SDS011;6189;52.526;13.390;2022-10-16T15:21:56;22.13;;;17.97;;
12253;SDS011;6189;52.526;13.390;2022-10-16T15:24:43;24.23;;;13.97;;
12253;SDS011;6189;52.526;13.390;2022-10-16T15:27:29;4.40;;;3.33;;
12253;SDS011;6189;52.526;13.390;2022-10-16T15:30:17;3.50;;;3.20;;
12253;SDS011;6189;52.526;13.390;2022-10-16T15:33:03;2.80;;;2.47;;
12253;SDS011;6189;52.526;13.390;2022-10-16T15:35:54;11.67;;;10.37;;
12253;SDS011;6189;52.526;13.390;2022-10-16T15:38:40;18.23;;;16.33;;
12253;SDS011;6189;52.526;13.390;2022-10-16T15:41:27;20.90;;;18.60;;
12253;SDS011;6189;52.526;13.390;2022-10-16T15:44:13;13.70;;;12.37;;
12253;SDS011;6189;52.526;13.390;2022-10-16T15:46:58;24.87;;;22.33;;
12253;SDS011;6189;52.526;13.390;2022-10-16T15:49:45;7.10;;;5.53;;
12253;SDS011;6189;52.526;13.390;2022-10-16T15:52:30;9.80;;;7.97;;
12253;SDS011;6189;52.526;13.390;2022-10-16T15:55:16;8.77;;;7.83;;
12253;SDS011;6189;52.526;13.390;2022-10-16T15:58:03;4.07;;;3.43;;
12253;SDS011;6189;52.526;13.390;2022-10-16T16:00:54;10.93;;;9.27;;
12253;SDS011;6189;52.526;13.390;2022-10-16T16:03:40;6.70;;;5.07;;
12253;SDS011;6189;52.526;13.390;2022-10-16T16:06:25;6.30;;;5.47;;
12253;SDS011;6189;52.526;13.390;2022-10-16T16:09:10;6.23;;;4.90;;
12253;SDS011;6189;52.526;13.390;2022-10-16T16:11:56;6.93;;;5.23;;
12253;SDS011;6189;52.526;13.390;2022-10-16T16:14:45;4.43;;;3.30;;
12253;SDS011;6189;52.526;13.390;2022-10-16T16:17:33;13.03;;;8.27;;
12253;SDS011;6189;52.526;13.390;2022-10-16T16:20:19;9.00;;;4.50;;
12253;SDS011;6189;52.526;13.390;2022-10-16T16:23:05;6.10;;;3.87;;
12253;SDS011;6189;52.526;13.390;2022-10-16T16:26:02;5.03;;;3.80;;
12253;SDS011;6189;52.526;13.390;2022-10-16T16:28:51;5.00;;;4.47;;
12253;SDS011;6189;52.526;13.390;2022-10-16T16:31:40;5.07;;;3.80;;
12253;SDS011;6189;52.526;13.390;2022-10-16T16:34:27;3.20;;;2.77;;
12253;SDS011;6189;52.526;13.390;2022-10-16T16:37:12;3.70;;;2.33;;
12253;SDS011;6189;52.526;13.390;2022-10-16T16:39:59;2.53;;;2.23;;
12253;SDS011;6189;52.526;13.390;2022-10-16T16:42:47;2.93;;;2.50;;
12253;SDS011;6189;52.526;13.390;2022-10-16T16:45:34;2.77;;;2.47;;
12253;SDS011;6189;52.526;13.390;2022-10-16T16:48:21;3.70;;;2.47;;
12253;SDS011;6189;52.526;13.390;2022-10-16T16:51:08;29.03;;;15.67;;
12253;SDS011;6189;52.526;13.390;2022-10-16T16:53:58;3.67;;;3.27;;
12253;SDS011;6189;52.526;13.390;2022-10-16T16:56:44;7.17;;;4.53;;
12253;SDS011;6189;52.526;13.390;2022-10-16T16:59:30;7.03;;;3.30;;
12253;SDS011;6189;52.526;13.390;2022-10-16T17:02:15;4.67;;;3.60;;
12253;SDS011;6189;52.526;13.390;2022-10-16T17:05:02;8.40;;;4.53;;
12253;SDS011;6189;52.526;13.390;2022-10-16T17:07:48;6.37;;;3.50;;
12253;SDS011;6189;52.526;13.390;2022-10-16T17:10:33;5.10;;;3.50;;
12253;SDS011;6189;52.526;13.390;2022-10-16T17:13:28;9.37;;;5.30;;
12253;SDS011;6189;52.526;13.390;2022-10-16T17:16:18;8.10;;;4.60;;
12253;SDS011;6189;52.526;13.390;2022-10-16T17:19:04;8.10;;;5.37;;